Time;durP1;ratioP1;P1;durP2;ratioP2;P2;SDS_P1;SDS_P2;PMS_P1;PMS_P2;Temp;Humidity;BMP_temperature;BMP_pressure;BME280_temperature;BME280_humidity;BME280_pressure;Samples;Min_cycle;Max_cycle;Signal;HPM_P1;HPM_P2
2023/07/10 00:01:42;;;;;;;2.53;1.90;;;;;;;;;;5014467;28;20176;-54
2023/07/10 00:04:19;;;;;;;2.15;1.95;;;;;;;;;;5014305;28;20195;-54
2023/07/10 00:06:46;;;;;;;2.10;1.90;;;;;;;;;;5013940;28;20188;-54
2023/07/10 00:09:12;;;;;;;2.35;1.80;;;;;;;;;;5013260;28;20242;-54
2023/07/10 00:11:38;;;;;;;1.88;1.77;;;;;;;;;;5014248;28;20215;-54
2023/07/10 00:14:06;;;;;;;1.98;1.70;;;;;;;;;;5014086;28;20579;-54
2023/07/10 00:16:32;;;;;;;2.20;1.98;;;;;;;;;;5013793;28;20173;-54
2023/07/10 00:18:58;;;;;;;2.42;2.22;;;;;;;;;;5012714;28;20195;-54
2023/07/10 00:21:24;;;;;;;2.17;1.98;;;;;;;;;;5014020;28;20189;-54
2023/07/10 00:23:49;;;;;;;2.20;2.00;;;;;;;;;;5007349;28;20279;-54
2023/07/10 00:26:18;;;;;;;2.25;1.80;;;;;;;;;;5013771;28;20180;-54
2023/07/10 00:28:44;;;;;;;3.40;1.85;;;;;;;;;;5013666;28;20485;-54
2023/07/10 00:31:13;;;;;;;2.10;1.90;;;;;;;;;;5013940;28;20181;-54
2023/07/10 00:33:38;;;;;;;2.20;1.90;;;;;;;;;;5014555;28;20263;-53
2023/07/10 00:36:23;;;;;;;2.30;1.90;;;;;;;;;;5014300;28;20259;-53
2023/07/10 00:38:49;;;;;;;2.10;1.90;;;;;;;;;;5013294;28;20247;-54
2023/07/10 00:41:15;;;;;;;2.28;2.05;;;;;;;;;;5014014;28;20200;-54
2023/07/10 00:43:50;;;;;;;2.60;2.08;;;;;;;;;;5014025;28;20203;-54
2023/07/10 00:46:25;;;;;;;2.35;2.10;;;;;;;;;;5013789;28;20180;-54
2023/07/10 00:48:53;;;;;;;2.20;2.00;;;;;;;;;;5013526;28;20222;-54
2023/07/10 00:51:23;;;;;;;2.20;2.00;;;;;;;;;;5014014;28;20460;-54
2023/07/10 00:53:51;;;;;;;1.98;1.80;;;;;;;;;;5013588;28;20501;-54
2023/07/10 00:56:19;;;;;;;2.08;1.88;;;;;;;;;;5013649;28;20587;-54
2023/07/10 00:58:46;;;;;;;2.10;1.90;;;;;;;;;;5005856;28;20204;-54
2023/07/10 01:01:15;;;;;;;2.50;2.25;;;;;;;;;;5013871;28;20180;-54
2023/07/10 01:03:42;;;;;;;2.20;2.00;;;;;;;;;;5013812;28;20192;-54
2023/07/10 01:06:19;;;;;;;2.10;1.90;;;;;;;;;;5013801;28;20185;-54
2023/07/10 01:08:53;;;;;;;2.15;2.00;;;;;;;;;;5012837;28;20202;-54
2023/07/10 01:11:19;;;;;;;2.20;2.00;;;;;;;;;;5014118;28;20176;-54
2023/07/10 01:13:46;;;;;;;1.90;1.80;;;;;;;;;;5014054;28;20181;-54
2023/07/10 01:16:12;;;;;;;2.10;1.90;;;;;;;;;;5013890;28;20176;-54
2023/07/10 01:18:39;;;;;;;2.35;2.08;;;;;;;;;;5012870;28;20211;-54
2023/07/10 01:21:10;;;;;;;2.42;2.00;;;;;;;;;;5017158;28;20560;-54
2023/07/10 01:23:36;;;;;;;2.20;1.80;;;;;;;;;;5016894;28;20215;-54
2023/07/10 01:26:03;;;;;;;2.53;2.25;;;;;;;;;;5017163;28;20466;-54
2023/07/10 01:28:33;;;;;;;2.72;2.15;;;;;;;;;;5016713;28;20209;-54
2023/07/10 01:30:59;;;;;;;1.95;1.75;;;;;;;;;;5017272;28;20165;-54
2023/07/10 01:33:27;;;;;;;2.20;2.00;;;;;;;;;;5016377;28;20208;-54
2023/07/10 01:35:55;;;;;;;2.22;2.03;;;;;;;;;;5016584;28;20168;-54
2023/07/10 01:38:22;;;;;;;2.50;1.77;;;;;;;;;;5015738;28;20551;-54
2023/07/10 01:40:51;;;;;;;2.05;1.90;;;;;;;;;;5016897;28;20538;-54
2023/07/10 01:43:17;;;;;;;2.70;2.05;;;;;;;;;;5016821;28;20195;-54
2023/07/10 01:45:44;;;;;;;2.38;2.08;;;;;;;;;;5016475;28;20188;-54
2023/07/10 01:48:11;;;;;;;2.38;1.98;;;;;;;;;;5015892;28;20324;-54
2023/07/10 01:50:37;;;;;;;2.25;2.05;;;;;;;;;;5016252;28;20204;-54
2023/07/10 01:53:03;;;;;;;2.15;1.95;;;;;;;;;;5016667;28;20282;-54
2023/07/10 01:55:30;;;;;;;2.40;2.20;;;;;;;;;;5016634;28;20188;-54
2023/07/10 01:57:56;;;;;;;2.20;2.00;;;;;;;;;;5016284;28;20259;-54
2023/07/10 02:00:22;;;;;;;2.25;2.05;;;;;;;;;;5016150;28;20259;-54
2023/07/10 02:02:48;;;;;;;2.53;2.10;;;;;;;;;;5016447;28;20203;-54
2023/07/10 02:05:13;;;;;;;2.65;2.10;;;;;;;;;;5016370;28;20200;-54
2023/07/10 02:07:39;;;;;;;3.00;1.92;;;;;;;;;;5015819;28;20239;-54
2023/07/10 02:10:05;;;;;;;2.10;1.90;;;;;;;;;;5016441;28;20206;-54
2023/07/10 02:12:31;;;;;;;2.20;2.00;;;;;;;;;;5016252;28;20268;-54
2023/07/10 02:14:57;;;;;;;2.42;2.22;;;;;;;;;;5016050;28;20255;-54
2023/07/10 02:17:23;;;;;;;2.67;2.20;;;;;;;;;;5014958;28;20691;-54
2023/07/10 02:19:49;;;;;;;2.30;2.10;;;;;;;;;;5015400;28;20185;-54
2023/07/10 02:22:15;;;;;;;2.25;1.92;;;;;;;;;;5015788;28;20449;-54
2023/07/10 02:24:41;;;;;;;2.40;2.20;;;;;;;;;;5015955;28;20184;-54
2023/07/10 02:27:07;;;;;;;2.08;1.92;;;;;;;;;;5015695;28;20219;-54
2023/07/10 02:29:33;;;;;;;2.30;2.10;;;;;;;;;;5015545;28;20209;-54
2023/07/10 02:32:00;;;;;;;2.25;2.05;;;;;;;;;;5014958;28;20187;-54
2023/07/10 02:34:26;;;;;;;2.00;1.80;;;;;;;;;;5016060;28;20173;-54
2023/07/10 02:36:52;;;;;;;2.60;2.40;;;;;;;;;;5015701;28;20169;-53
2023/07/10 02:39:18;;;;;;;2.42;2.05;;;;;;;;;;5015771;28;20177;-54
2023/07/10 02:41:44;;;;;;;2.47;2.10;;;;;;;;;;5012502;28;20211;-54
2023/07/10 02:44:10;;;;;;;2.28;2.08;;;;;;;;;;5014474;28;20220;-54
2023/07/10 02:46:36;;;;;;;3.10;2.53;;;;;;;;;;5008346;28;20555;-54
2023/07/10 02:49:02;;;;;;;2.00;1.80;;;;;;;;;;5015108;28;20274;-54
2023/07/10 02:51:27;;;;;;;3.78;2.30;;;;;;;;;;5015408;28;20208;-54
2023/07/10 02:53:53;;;;;;;2.20;2.00;;;;;;;;;;5015009;28;20181;-54
2023/07/10 02:56:20;;;;;;;2.30;2.10;;;;;;;;;;5015012;28;20176;-54
2023/07/10 02:58:49;;;;;;;2.38;2.10;;;;;;;;;;5014814;28;20195;-54
2023/07/10 03:01:15;;;;;;;2.47;2.28;;;;;;;;;;5015491;28;20184;-54
2023/07/10 03:03:45;;;;;;;2.40;2.20;;;;;;;;;;5015394;28;20219;-54
2023/07/10 03:06:11;;;;;;;2.40;2.20;;;;;;;;;;5015113;28;20172;-54
2023/07/10 03:08:37;;;;;;;2.20;2.00;;;;;;;;;;5014754;28;20212;-54
2023/07/10 03:11:04;;;;;;;2.10;1.95;;;;;;;;;;5015474;28;20192;-54
2023/07/10 03:13:30;;;;;;;2.60;2.10;;;;;;;;;;5015036;28;20183;-54
2023/07/10 03:15:58;;;;;;;4.15;2.42;;;;;;;;;;5015464;28;20251;-54
2023/07/10 03:18:24;;;;;;;2.60;2.38;;;;;;;;;;5014652;28;20247;-54
2023/07/10 03:20:50;;;;;;;2.40;2.20;;;;;;;;;;5014306;28;20220;-54
2023/07/10 03:23:16;;;;;;;2.40;2.20;;;;;;;;;;5015047;28;20458;-54
2023/07/10 03:25:41;;;;;;;2.45;2.22;;;;;;;;;;5014960;28;20189;-54
2023/07/10 03:28:07;;;;;;;2.30;2.10;;;;;;;;;;5014259;28;20505;-54
2023/07/10 03:30:35;;;;;;;2.50;2.30;;;;;;;;;;5014977;28;20255;-54
2023/07/10 03:33:01;;;;;;;2.50;2.30;;;;;;;;;;5015169;28;20481;-53
2023/07/10 03:35:27;;;;;;;2.42;2.22;;;;;;;;;;5014519;28;20270;-54
2023/07/10 03:37:52;;;;;;;2.30;2.10;;;;;;;;;;5013379;28;20177;-54
2023/07/10 03:40:18;;;;;;;2.67;2.33;;;;;;;;;;5015069;28;20180;-54
2023/07/10 03:42:44;;;;;;;2.60;2.33;;;;;;;;;;5014782;28;20176;-54
2023/07/10 03:45:10;;;;;;;2.58;2.38;;;;;;;;;;5014650;28;20192;-54
2023/07/10 03:47:36;;;;;;;2.45;2.15;;;;;;;;;;5013518;28;20239;-54
2023/07/10 03:50:02;;;;;;;2.22;2.03;;;;;;;;;;5014404;28;20262;-54
2023/07/10 03:52:28;;;;;;;4.07;2.33;;;;;;;;;;5014768;28;20203;-53
2023/07/10 03:54:54;;;;;;;2.53;2.33;;;;;;;;;;5014520;28;20287;-54
2023/07/10 03:57:20;;;;;;;2.40;2.20;;;;;;;;;;5014573;28;20627;-54
2023/07/10 03:59:46;;;;;;;2.05;1.95;;;;;;;;;;5014202;28;20188;-54
2023/07/10 04:02:11;;;;;;;2.65;2.42;;;;;;;;;;5014021;28;20279;-54
2023/07/10 04:04:37;;;;;;;2.85;2.50;;;;;;;;;;5013929;28;20499;-54
2023/07/10 04:07:03;;;;;;;1.88;1.75;;;;;;;;;;5014228;28;20188;-54
2023/07/10 04:09:29;;;;;;;2.40;2.20;;;;;;;;;;5014098;28;20376;-54
2023/07/10 04:11:55;;;;;;;2.38;2.17;;;;;;;;;;5014377;28;20215;-54
2023/07/10 04:14:21;;;;;;;2.28;2.08;;;;;;;;;;5014475;28;20173;-54
2023/07/10 04:16:52;;;;;;;2.30;2.10;;;;;;;;;;5014311;28;20196;-54
2023/07/10 04:19:18;;;;;;;2.72;2.30;;;;;;;;;;5012669;28;20212;-54
2023/07/10 04:21:44;;;;;;;2.45;2.22;;;;;;;;;;5014063;28;20305;-54
2023/07/10 04:24:10;;;;;;;2.65;2.38;;;;;;;;;;5014144;28;20180;-54
2023/07/10 04:26:36;;;;;;;2.40;2.20;;;;;;;;;;4997085;28;20191;-55
2023/07/10 04:29:03;;;;;;;2.22;2.03;;;;;;;;;;5013271;28;20258;-54
2023/07/10 04:31:30;;;;;;;2.63;2.22;;;;;;;;;;5014036;28;20192;-54
2023/07/10 04:33:56;;;;;;;2.40;2.20;;;;;;;;;;5013890;28;20188;-54
2023/07/10 04:36:22;;;;;;;2.88;2.25;;;;;;;;;;5014040;28;20191;-54
2023/07/10 04:38:49;;;;;;;2.45;2.25;;;;;;;;;;5013662;28;20546;-54
2023/07/10 04:41:17;;;;;;;2.40;2.20;;;;;;;;;;5014182;28;20176;-54
2023/07/10 04:43:43;;;;;;;2.90;2.60;;;;;;;;;;5014009;28;20227;-54
2023/07/10 04:46:10;;;;;;;2.85;2.20;;;;;;;;;;5014118;28;20188;-54
2023/07/10 04:48:36;;;;;;;2.38;2.17;;;;;;;;;;5013529;28;20246;-54
2023/07/10 04:51:03;;;;;;;2.42;2.13;;;;;;;;;;5014355;28;20223;-54
2023/07/10 04:53:30;;;;;;;2.55;2.30;;;;;;;;;;5014407;28;20172;-54
2023/07/10 04:55:56;;;;;;;2.60;2.40;;;;;;;;;;5017744;28;20223;-54
2023/07/10 04:58:23;;;;;;;2.42;2.22;;;;;;;;;;5017026;28;20244;-54
2023/07/10 05:00:52;;;;;;;2.35;2.15;;;;;;;;;;5017748;28;20476;-54
2023/07/10 05:03:18;;;;;;;2.38;2.15;;;;;;;;;;5017373;28;20193;-54
2023/07/10 05:05:51;;;;;;;2.55;2.35;;;;;;;;;;5017768;28;20184;-54
2023/07/10 05:08:17;;;;;;;2.65;2.35;;;;;;;;;;5016892;28;20208;-54
2023/07/10 05:10:44;;;;;;;2.33;2.10;;;;;;;;;;5017609;28;20440;-54
2023/07/10 05:13:09;;;;;;;2.45;2.25;;;;;;;;;;5017648;28;20172;-54
2023/07/10 05:15:35;;;;;;;2.45;2.25;;;;;;;;;;5017105;28;20564;-54
2023/07/10 05:18:01;;;;;;;2.70;2.13;;;;;;;;;;5016827;28;20176;-54
2023/07/10 05:20:27;;;;;;;2.00;1.90;;;;;;;;;;5016716;28;20204;-54
2023/07/10 05:22:53;;;;;;;2.30;2.10;;;;;;;;;;5016997;28;20200;-54
2023/07/10 05:25:19;;;;;;;2.20;2.00;;;;;;;;;;5017347;28;20187;-54
2023/07/10 05:27:45;;;;;;;2.30;2.10;;;;;;;;;;5016594;28;20557;-54
2023/07/10 05:30:11;;;;;;;2.25;2.00;;;;;;;;;;5017121;28;20176;-54
2023/07/10 05:32:37;;;;;;;2.63;2.42;;;;;;;;;;5017313;28;20569;-54
2023/07/10 05:35:03;;;;;;;2.47;2.28;;;;;;;;;;5017078;28;20239;-54
2023/07/10 05:37:29;;;;;;;2.50;2.30;;;;;;;;;;5016299;28;20231;-54
2023/07/10 05:39:55;;;;;;;2.35;2.15;;;;;;;;;;5017020;28;20604;-54
2023/07/10 05:42:21;;;;;;;2.75;2.45;;;;;;;;;;5016827;28;20271;-54
2023/07/10 05:44:47;;;;;;;2.47;2.28;;;;;;;;;;5016839;28;20196;-54
2023/07/10 05:47:13;;;;;;;2.33;2.13;;;;;;;;;;5016563;28;20498;-54
2023/07/10 05:49:39;;;;;;;2.42;2.22;;;;;;;;;;5015991;28;20223;-54
2023/07/10 05:52:05;;;;;;;2.47;2.28;;;;;;;;;;5016519;28;20544;-54
2023/07/10 05:54:31;;;;;;;3.88;2.50;;;;;;;;;;5016693;28;20476;-54
2023/07/10 05:56:59;;;;;;;2.30;2.10;;;;;;;;;;5016552;28;20396;-54
2023/07/10 05:59:25;;;;;;;2.58;2.38;;;;;;;;;;5016000;28;20451;-54
2023/07/10 06:01:51;;;;;;;2.28;2.08;;;;;;;;;;5016474;28;20260;-54
2023/07/10 06:04:17;;;;;;;2.35;2.15;;;;;;;;;;5016433;28;20230;-54
2023/07/10 06:06:44;;;;;;;2.97;2.67;;;;;;;;;;5015060;28;20223;-54
2023/07/10 06:09:10;;;;;;;2.75;1.90;;;;;;;;;;5015829;28;20208;-54
2023/07/10 06:11:36;;;;;;;2.47;2.28;;;;;;;;;;5013404;28;20183;-54
2023/07/10 06:14:02;;;;;;;2.47;2.28;;;;;;;;;;5016265;28;20184;-54
2023/07/10 06:16:28;;;;;;;1.95;1.75;;;;;;;;;;5016357;28;20185;-54
2023/07/10 06:18:54;;;;;;;2.30;2.10;;;;;;;;;;5014517;28;20260;-54
2023/07/10 06:21:20;;;;;;;2.60;2.40;;;;;;;;;;5015919;28;20247;-54
2023/07/10 06:23:46;;;;;;;2.75;2.03;;;;;;;;;;5015920;28;20219;-54
2023/07/10 06:26:11;;;;;;;3.53;2.35;;;;;;;;;;5015927;28;20179;-54
2023/07/10 06:28:37;;;;;;;2.40;2.20;;;;;;;;;;5015498;28;20267;-54
2023/07/10 06:31:05;;;;;;;2.20;2.00;;;;;;;;;;5015833;28;20510;-54
2023/07/10 06:33:32;;;;;;;2.35;2.05;;;;;;;;;;5015632;28;20229;-54
2023/07/10 06:35:58;;;;;;;2.40;2.20;;;;;;;;;;5013472;28;20239;-55
2023/07/10 06:38:24;;;;;;;2.33;2.13;;;;;;;;;;5015241;28;20187;-55
2023/07/10 06:40:50;;;;;;;2.75;2.00;;;;;;;;;;5015844;28;20251;-54
2023/07/10 06:43:17;;;;;;;2.10;1.90;;;;;;;;;;5015785;28;20181;-54
2023/07/10 06:45:43;;;;;;;2.55;2.35;;;;;;;;;;5013242;28;20196;-54
2023/07/10 06:48:09;;;;;;;2.45;2.25;;;;;;;;;;5014423;28;20230;-54
2023/07/10 06:50:35;;;;;;;2.25;2.00;;;;;;;;;;5010004;28;20456;-55
2023/07/10 06:53:01;;;;;;;2.40;2.20;;;;;;;;;;5013353;28;20188;-54
2023/07/10 06:55:27;;;;;;;2.58;2.17;;;;;;;;;;5015237;28;20195;-55
2023/07/10 06:57:53;;;;;;;2.28;2.08;;;;;;;;;;5014821;28;20172;-54
2023/07/10 07:00:19;;;;;;;2.33;2.13;;;;;;;;;;5015207;28;20443;-54
2023/07/10 07:02:45;;;;;;;2.05;1.88;;;;;;;;;;5015334;28;20184;-54
2023/07/10 07:05:12;;;;;;;2.65;2.08;;;;;;;;;;5014979;28;20575;-54
2023/07/10 07:07:38;;;;;;;2.60;2.10;;;;;;;;;;5014929;28;20184;-54
2023/07/10 07:10:05;;;;;;;2.10;1.95;;;;;;;;;;5015171;28;20204;-54
2023/07/10 07:12:31;;;;;;;2.20;2.00;;;;;;;;;;5015449;28;20238;-54
2023/07/10 07:14:57;;;;;;;2.30;1.85;;;;;;;;;;5006301;28;20256;-54
2023/07/10 07:17:23;;;;;;;1.95;1.75;;;;;;;;;;5004274;28;20554;-54
2023/07/10 07:19:49;;;;;;;3.08;2.47;;;;;;;;;;5007952;28;20263;-55
2023/07/10 07:22:15;;;;;;;1.92;1.83;;;;;;;;;;5010332;28;20287;-55
2023/07/10 07:24:42;;;;;;;2.38;2.17;;;;;;;;;;5009193;28;20187;-54
2023/07/10 07:27:07;;;;;;;2.25;2.05;;;;;;;;;;5013450;28;20188;-54
2023/07/10 07:29:33;;;;;;;1.90;1.80;;;;;;;;;;5012330;28;20207;-54
2023/07/10 07:31:59;;;;;;;2.20;1.77;;;;;;;;;;5007476;28;20564;-55
2023/07/10 07:34:25;;;;;;;2.28;1.95;;;;;;;;;;5007813;28;20180;-55
2023/07/10 07:36:52;;;;;;;2.88;2.30;;;;;;;;;;5014813;28;20243;-55
2023/07/10 07:39:20;;;;;;;2.83;2.30;;;;;;;;;;5012820;28;20211;-55
2023/07/10 07:41:46;;;;;;;2.08;1.88;;;;;;;;;;5012077;28;20488;-54
2023/07/10 07:44:12;;;;;;;2.45;2.08;;;;;;;;;;5017710;28;20208;-55
2023/07/10 07:46:38;;;;;;;2.20;2.00;;;;;;;;;;5006544;28;20215;-54
2023/07/10 07:49:04;;;;;;;2.20;2.00;;;;;;;;;;5011525;28;20258;-54
2023/07/10 07:51:30;;;;;;;2.35;2.15;;;;;;;;;;5013584;28;20181;-54
2023/07/10 07:54:04;;;;;;;2.15;1.98;;;;;;;;;;5011937;28;20188;-54
2023/07/10 07:56:30;;;;;;;2.50;2.30;;;;;;;;;;5012546;28;20192;-54
2023/07/10 07:58:56;;;;;;;2.20;2.00;;;;;;;;;;5010382;28;20184;-54
2023/07/10 08:01:22;;;;;;;2.35;2.15;;;;;;;;;;5007346;28;21996;-55
2023/07/10 08:03:48;;;;;;;3.13;2.38;;;;;;;;;;5010285;28;20210;-54
2023/07/10 08:06:13;;;;;;;2.13;1.80;;;;;;;;;;5010974;28;20197;-55
2023/07/10 08:08:40;;;;;;;2.20;2.00;;;;;;;;;;5008612;28;20482;-55
2023/07/10 08:11:06;;;;;;;2.25;2.05;;;;;;;;;;5014146;28;20188;-54
2023/07/10 08:13:32;;;;;;;2.20;2.00;;;;;;;;;;5014601;28;20204;-54
2023/07/10 08:15:58;;;;;;;2.65;2.00;;;;;;;;;;5014117;28;20567;-55
2023/07/10 08:18:24;;;;;;;2.72;2.25;;;;;;;;;;5013790;28;20191;-55
2023/07/10 08:20:50;;;;;;;2.10;1.80;;;;;;;;;;5014501;28;20199;-54
2023/07/10 08:23:16;;;;;;;1.90;1.80;;;;;;;;;;5013933;28;20192;-54
2023/07/10 08:25:42;;;;;;;2.65;2.10;;;;;;;;;;5014018;28;20203;-54
2023/07/10 08:28:08;;;;;;;2.63;2.20;;;;;;;;;;5013313;28;20192;-54
2023/07/10 08:30:34;;;;;;;1.90;1.80;;;;;;;;;;5018019;28;20227;-54
2023/07/10 08:33:00;;;;;;;2.10;1.90;;;;;;;;;;5017952;28;20559;-54
2023/07/10 08:35:26;;;;;;;2.10;1.90;;;;;;;;;;5018312;28;20570;-54
2023/07/10 08:37:52;;;;;;;2.30;2.10;;;;;;;;;;5017810;28;20188;-54
2023/07/10 08:40:30;;;;;;;2.50;2.30;;;;;;;;;;5017828;28;20223;-54
2023/07/10 08:42:56;;;;;;;2.15;2.00;;;;;;;;;;5017966;28;20180;-54
2023/07/10 08:45:31;;;;;;;2.08;1.88;;;;;;;;;;5000495;28;20185;-54
2023/07/10 08:48:01;;;;;;;2.38;2.17;;;;;;;;;;5016702;28;20629;-54
2023/07/10 08:50:29;;;;;;;1.90;1.70;;;;;;;;;;5018171;28;20260;-54
2023/07/10 08:52:55;;;;;;;2.67;2.17;;;;;;;;;;5017266;28;20172;-55
2023/07/10 08:55:27;;;;;;;2.72;2.28;;;;;;;;;;5017671;28;20514;-54
2023/07/10 08:58:01;;;;;;;2.67;2.08;;;;;;;;;;5017361;28;20192;-54
2023/07/10 09:00:28;;;;;;;2.28;2.03;;;;;;;;;;5017762;28;20187;-54
2023/07/10 09:03:00;;;;;;;2.05;1.85;;;;;;;;;;5016796;28;20195;-54
2023/07/10 09:05:30;;;;;;;2.13;1.80;;;;;;;;;;5017383;28;20456;-55
2023/07/10 09:07:59;;;;;;;1.92;1.83;;;;;;;;;;5016456;28;20181;-55
2023/07/10 09:10:27;;;;;;;1.98;1.77;;;;;;;;;;5017753;28;20215;-55
2023/07/10 09:12:55;;;;;;;2.33;2.13;;;;;;;;;;5017459;28;20184;-55
2023/07/10 09:15:26;;;;;;;2.20;2.00;;;;;;;;;;5017322;28;20180;-54
2023/07/10 09:17:58;;;;;;;1.70;1.60;;;;;;;;;;5016551;28;20227;-55
2023/07/10 09:20:25;;;;;;;2.10;1.90;;;;;;;;;;5017417;28;20180;-54
2023/07/10 09:22:59;;;;;;;2.47;2.10;;;;;;;;;;5017248;28;20246;-54
2023/07/10 09:25:25;;;;;;;2.33;2.13;;;;;;;;;;5017185;28;20223;-54
2023/07/10 09:27:51;;;;;;;2.28;2.08;;;;;;;;;;5016841;28;20490;-54
2023/07/10 09:30:26;;;;;;;1.77;1.60;;;;;;;;;;5017182;28;20262;-54
2023/07/10 09:32:59;;;;;;;1.75;1.65;;;;;;;;;;5017217;28;20188;-54
2023/07/10 09:35:25;;;;;;;2.45;2.00;;;;;;;;;;5016982;28;20180;-55
2023/07/10 09:37:51;;;;;;;2.00;1.80;;;;;;;;;;5016827;28;20252;-55
2023/07/10 09:40:41;;;;;;;1.83;1.73;;;;;;;;;;5016339;28;20264;-55
2023/07/10 09:43:17;;;;;;;2.10;1.90;;;;;;;;;;5006717;28;20197;-55
2023/07/10 09:45:45;;;;;;;2.15;1.80;;;;;;;;;;5016856;28;20187;-56
2023/07/10 09:48:12;;;;;;;1.75;1.65;;;;;;;;;;5016036;28;20219;-53
2023/07/10 09:50:38;;;;;;;1.83;1.73;;;;;;;;;;5016334;28;20200;-53
2023/07/10 09:53:04;;;;;;;2.38;2.17;;;;;;;;;;5016631;28;20208;-53
2023/07/10 09:55:30;;;;;;;2.33;1.65;;;;;;;;;;5016607;28;20215;-53
2023/07/10 09:58:03;;;;;;;2.22;2.03;;;;;;;;;;5016255;28;20494;-54
2023/07/10 10:00:30;;;;;;;1.80;1.70;;;;;;;;;;5016778;28;20483;-54
2023/07/10 10:03:03;;;;;;;2.20;2.00;;;;;;;;;;5016119;28;20195;-54
2023/07/10 10:05:30;;;;;;;2.58;1.77;;;;;;;;;;5016683;28;20188;-54
2023/07/10 10:08:01;;;;;;;1.70;1.60;;;;;;;;;;5015112;28;20184;-54
2023/07/10 10:10:37;;;;;;;1.98;1.80;;;;;;;;;;5016640;28;20923;-55
2023/07/10 10:13:06;;;;;;;1.80;1.70;;;;;;;;;;5016029;28;20203;-54
2023/07/10 10:15:42;;;;;;;1.65;1.55;;;;;;;;;;5016280;28;20181;-54
2023/07/10 10:18:15;;;;;;;1.70;1.60;;;;;;;;;;5015315;28;20500;-54
2023/07/10 10:20:41;;;;;;;1.70;1.60;;;;;;;;;;5009133;28;20215;-53
2023/07/10 10:23:17;;;;;;;1.88;1.75;;;;;;;;;;5016004;28;20200;-54
2023/07/10 10:25:45;;;;;;;2.30;2.00;;;;;;;;;;5015858;28;20184;-54
2023/07/10 10:28:32;;;;;;;2.08;1.90;;;;;;;;;;5015311;28;20292;-54
2023/07/10 10:31:00;;;;;;;1.60;1.50;;;;;;;;;;5011036;28;20613;-54
2023/07/10 10:33:53;;;;;;;1.75;1.65;;;;;;;;;;5015489;28;20185;-54
2023/07/10 10:36:18;;;;;;;1.70;1.60;;;;;;;;;;5015857;28;20191;-54
2023/07/10 10:38:53;;;;;;;2.08;1.67;;;;;;;;;;5015373;28;20192;-54
2023/07/10 10:41:38;;;;;;;2.25;1.60;;;;;;;;;;5016155;28;20188;-54
2023/07/10 10:44:19;;;;;;;1.67;1.58;;;;;;;;;;5015690;28;20184;-54
2023/07/10 10:46:57;;;;;;;1.98;1.88;;;;;;;;;;5015704;28;20192;-54
2023/07/10 10:49:28;;;;;;;1.75;1.65;;;;;;;;;;5014772;28;20270;-54
2023/07/10 10:51:54;;;;;;;1.88;1.77;;;;;;;;;;5014969;28;20439;-54
2023/07/10 10:54:27;;;;;;;1.73;1.63;;;;;;;;;;5015348;28;20215;-54
2023/07/10 10:57:06;;;;;;;1.77;1.67;;;;;;;;;;5015455;28;20173;-54
2023/07/10 10:59:50;;;;;;;2.17;1.98;;;;;;;;;;5014850;28;20263;-54
2023/07/10 11:02:37;;;;;;;1.70;1.60;;;;;;;;;;5015555;28;20231;-54
2023/07/10 11:05:03;;;;;;;1.73;1.63;;;;;;;;;;5015354;28;20226;-53
2023/07/10 11:07:31;;;;;;;1.65;1.55;;;;;;;;;;5013682;28;20196;-54
2023/07/10 11:10:02;;;;;;;1.85;1.70;;;;;;;;;;5015347;28;20220;-54
2023/07/10 11:12:30;;;;;;;1.58;1.48;;;;;;;;;;5015327;28;20187;-54
2023/07/10 11:15:00;;;;;;;1.88;1.73;;;;;;;;;;5015205;28;20575;-54
2023/07/10 11:17:26;;;;;;;1.73;1.63;;;;;;;;;;5014705;28;20180;-54
2023/07/10 11:19:52;;;;;;;1.73;1.63;;;;;;;;;;5015324;28;20191;-54
2023/07/10 11:22:25;;;;;;;2.65;1.80;;;;;;;;;;5015377;28;20578;-54
2023/07/10 11:24:54;;;;;;;1.50;1.40;;;;;;;;;;5014453;28;20497;-54
2023/07/10 11:27:27;;;;;;;1.73;1.60;;;;;;;;;;5015004;28;20185;-54
2023/07/10 11:29:55;;;;;;;1.60;1.50;;;;;;;;;;5014805;28;20197;-53
2023/07/10 11:32:22;;;;;;;1.98;1.77;;;;;;;;;;5015148;28;20259;-54
2023/07/10 11:34:50;;;;;;;1.70;1.60;;;;;;;;;;5014958;28;20267;-54
2023/07/10 11:37:35;;;;;;;1.73;1.60;;;;;;;;;;5014963;28;20168;-54
2023/07/10 11:40:20;;;;;;;1.90;1.80;;;;;;;;;;5014837;28;20647;-54
2023/07/10 11:42:46;;;;;;;1.60;1.50;;;;;;;;;;5015084;28;20459;-54
2023/07/10 11:45:13;;;;;;;1.70;1.60;;;;;;;;;;5014673;28;20184;-54
2023/07/10 11:47:43;;;;;;;1.95;1.70;;;;;;;;;;5013922;28;20200;-54
2023/07/10 11:50:17;;;;;;;1.65;1.50;;;;;;;;;;5014773;28;20212;-54
2023/07/10 11:52:43;;;;;;;1.90;1.70;;;;;;;;;;5014182;28;20219;-54
2023/07/10 11:55:11;;;;;;;1.55;1.45;;;;;;;;;;5014099;28;20184;-55
2023/07/10 11:57:38;;;;;;;1.58;1.48;;;;;;;;;;5014036;28;20218;-55
2023/07/10 12:00:06;;;;;;;1.90;1.70;;;;;;;;;;5014719;28;20615;-54
2023/07/10 12:02:58;;;;;;;1.65;1.55;;;;;;;;;;5014489;28;20188;-54
2023/07/10 12:05:31;;;;;;;1.65;1.55;;;;;;;;;;5010608;28;20196;-54
2023/07/10 12:07:59;;;;;;;1.58;1.48;;;;;;;;;;5013436;28;20377;-54
2023/07/10 12:10:27;;;;;;;2.08;1.85;;;;;;;;;;5014458;28;20176;-54
2023/07/10 12:12:53;;;;;;;1.42;1.33;;;;;;;;;;5014487;28;20242;-54
2023/07/10 12:15:19;;;;;;;1.55;1.45;;;;;;;;;;5014112;28;20180;-54
2023/07/10 12:17:45;;;;;;;1.48;1.38;;;;;;;;;;5013740;28;20180;-55
2023/07/10 12:20:20;;;;;;;2.30;1.58;;;;;;;;;;5014423;28;20208;-54
2023/07/10 12:22:46;;;;;;;1.60;1.50;;;;;;;;;;4996836;28;20183;-54
2023/07/10 12:25:13;;;;;;;1.73;1.63;;;;;;;;;;5014132;28;20191;-54
2023/07/10 12:27:39;;;;;;;2.03;1.27;;;;;;;;;;5013155;28;20511;-54
2023/07/10 12:30:13;;;;;;;1.67;1.30;;;;;;;;;;5014450;28;20204;-54
2023/07/10 12:32:39;;;;;;;1.80;1.50;;;;;;;;;;5014548;28;20459;-55
2023/07/10 12:35:12;;;;;;;1.60;1.50;;;;;;;;;;5014677;28;20207;-55
2023/07/10 12:37:39;;;;;;;1.95;1.77;;;;;;;;;;4996576;28;20590;-55
2023/07/10 12:40:12;;;;;;;1.88;1.50;;;;;;;;;;5013870;28;20235;-55
2023/07/10 12:42:38;;;;;;;2.22;1.70;;;;;;;;;;5014490;28;20694;-55
2023/07/10 12:45:06;;;;;;;2.00;1.83;;;;;;;;;;5014352;28;20189;-54
2023/07/10 12:47:34;;;;;;;1.85;1.50;;;;;;;;;;5013263;28;20208;-54
2023/07/10 12:50:00;;;;;;;2.20;2.00;;;;;;;;;;5014005;28;20291;-55
2023/07/10 12:52:26;;;;;;;1.63;1.52;;;;;;;;;;5014030;28;20476;-54
2023/07/10 12:54:53;;;;;;;2.22;1.55;;;;;;;;;;5013556;28;20191;-54
2023/07/10 12:57:22;;;;;;;1.58;1.45;;;;;;;;;;5013480;28;20184;-54
2023/07/10 12:59:49;;;;;;;1.50;1.40;;;;;;;;;;5013235;28;20259;-55
2023/07/10 13:02:19;;;;;;;1.42;1.33;;;;;;;;;;5014344;28;20187;-55
2023/07/10 13:04:50;;;;;;;1.50;1.40;;;;;;;;;;5013627;28;20564;-54
2023/07/10 13:07:19;;;;;;;1.40;1.30;;;;;;;;;;5013555;28;20168;-55
2023/07/10 13:09:53;;;;;;;1.52;1.42;;;;;;;;;;5013634;28;20744;-55
2023/07/10 13:12:21;;;;;;;1.60;1.50;;;;;;;;;;5013842;28;20505;-55
2023/07/10 13:14:47;;;;;;;1.77;1.50;;;;;;;;;;5014521;28;20230;-55
2023/07/10 13:17:13;;;;;;;1.50;1.40;;;;;;;;;;5017264;28;20271;-55
2023/07/10 13:19:39;;;;;;;1.92;1.33;;;;;;;;;;5016589;28;20417;-55
2023/07/10 13:22:12;;;;;;;1.83;1.73;;;;;;;;;;5016671;28;20192;-54
2023/07/10 13:24:38;;;;;;;1.73;1.63;;;;;;;;;;5017272;28;20199;-55
2023/07/10 13:27:04;;;;;;;1.48;1.38;;;;;;;;;;5016208;28;20195;-54
2023/07/10 13:29:35;;;;;;;1.67;1.38;;;;;;;;;;5014062;28;20219;-54
2023/07/10 13:32:01;;;;;;;1.98;1.52;;;;;;;;;;5012108;28;20227;-54
2023/07/10 13:34:27;;;;;;;1.50;1.40;;;;;;;;;;5015734;28;20694;-55
2023/07/10 13:36:53;;;;;;;1.55;1.45;;;;;;;;;;5015700;28;20299;-54
2023/07/10 13:39:19;;;;;;;1.67;1.58;;;;;;;;;;5016128;28;20219;-54
2023/07/10 13:41:45;;;;;;;1.33;1.23;;;;;;;;;;5013707;28;20303;-55
2023/07/10 13:44:11;;;;;;;1.73;1.63;;;;;;;;;;5017228;28;20180;-55
2023/07/10 13:46:38;;;;;;;1.60;1.50;;;;;;;;;;5016414;28;20591;-55
2023/07/10 13:49:05;;;;;;;1.40;1.30;;;;;;;;;;5016466;28;20274;-55
2023/07/10 13:51:31;;;;;;;1.52;1.42;;;;;;;;;;5016739;28;20219;-55
2023/07/10 13:53:58;;;;;;;1.77;1.67;;;;;;;;;;5016519;28;20193;-55
2023/07/10 13:56:27;;;;;;;1.77;1.67;;;;;;;;;;5016352;28;20176;-54
2023/07/10 13:58:53;;;;;;;1.60;1.50;;;;;;;;;;5016201;28;20223;-55
2023/07/10 14:01:19;;;;;;;1.60;1.50;;;;;;;;;;5016849;28;20555;-55
2023/07/10 14:03:45;;;;;;;1.42;1.33;;;;;;;;;;5016466;28;20189;-53
2023/07/10 14:06:28;;;;;;;1.60;1.50;;;;;;;;;;5016219;28;20610;-54
2023/07/10 14:08:55;;;;;;;1.58;1.48;;;;;;;;;;5015825;28;20603;-54
2023/07/10 14:11:21;;;;;;;1.85;1.63;;;;;;;;;;5016487;28;20864;-54
2023/07/10 14:13:47;;;;;;;1.83;1.70;;;;;;;;;;5016588;28;20536;-54
2023/07/10 14:16:15;;;;;;;2.03;1.50;;;;;;;;;;5016179;28;20195;-54
2023/07/10 14:18:41;;;;;;;1.40;1.30;;;;;;;;;;5015385;28;20180;-54
2023/07/10 14:21:09;;;;;;;1.63;1.52;;;;;;;;;;5016151;28;20570;-54
2023/07/10 14:23:35;;;;;;;1.65;1.55;;;;;;;;;;5016388;28;20203;-54
2023/07/10 14:26:01;;;;;;;1.77;1.58;;;;;;;;;;5015306;28;20195;-54
2023/07/10 14:28:27;;;;;;;1.60;1.50;;;;;;;;;;5015111;28;20212;-55
2023/07/10 14:30:54;;;;;;;1.65;1.40;;;;;;;;;;5016187;28;20180;-55
2023/07/10 14:33:20;;;;;;;1.30;1.20;;;;;;;;;;5015738;28;20169;-54
2023/07/10 14:35:47;;;;;;;1.30;1.20;;;;;;;;;;5015839;28;20525;-54
2023/07/10 14:38:20;;;;;;;1.33;1.23;;;;;;;;;;5015433;28;20175;-54
2023/07/10 14:40:47;;;;;;;1.50;1.40;;;;;;;;;;5014750;28;20448;-54
2023/07/10 14:43:13;;;;;;;1.42;1.33;;;;;;;;;;5015788;28;20188;-54
2023/07/10 14:45:42;;;;;;;2.00;1.85;;;;;;;;;;5015808;28;20177;-55
2023/07/10 14:48:11;;;;;;;1.88;1.70;;;;;;;;;;5014895;28;20212;-55